createdAt,value
2019-02-15T00:02:01.111Z,4.10
2019-02-15T00:04:31.022Z,4.00
2019-02-15T00:07:00.955Z,3.90
2019-02-15T00:09:31.779Z,3.80
2019-02-15T00:12:02.055Z,3.70
2019-02-15T00:14:49.841Z,3.70
2019-02-15T00:17:38.317Z,3.70
2019-02-15T00:20:12.061Z,3.70
2019-02-15T00:22:42.365Z,3.70
2019-02-15T00:25:12.699Z,3.70
2019-02-15T00:27:43.479Z,3.80
2019-02-15T00:30:13.783Z,3.80
2019-02-15T00:32:43.724Z,3.80
2019-02-15T00:35:13.943Z,3.90
2019-02-15T00:37:43.812Z,3.90
2019-02-15T00:40:14.052Z,4.00
2019-02-15T00:42:44.703Z,4.00
2019-02-15T00:45:16.551Z,4.10
2019-02-15T00:47:56.440Z,4.10
2019-02-15T00:50:42.910Z,4.10
2019-02-15T00:53:29.534Z,4.10
2019-02-15T00:56:24.460Z,4.10
2019-02-15T00:59:13.911Z,4.20
2019-02-15T01:02:01.098Z,4.30
2019-02-15T01:04:54.223Z,4.40
2019-02-15T01:07:41.749Z,4.40
2019-02-15T01:10:30.889Z,4.50
2019-02-15T01:13:10.183Z,4.50
2019-02-15T01:15:40.451Z,4.50
2019-02-15T01:18:10.297Z,4.60
2019-02-15T01:20:40.192Z,4.50
2019-02-15T01:23:10.493Z,4.60
2019-02-15T01:25:49.464Z,4.60
2019-02-15T01:28:28.665Z,4.50
2019-02-15T01:31:17.401Z,4.50
2019-02-15T01:34:01.452Z,4.50
2019-02-15T01:36:59.305Z,4.50
2019-02-15T01:39:37.252Z,4.40
2019-02-15T01:42:24.859Z,4.30
2019-02-15T01:45:16.792Z,4.30
2019-02-15T01:47:48.636Z,4.30
2019-02-15T01:50:19.190Z,4.20
2019-02-15T01:52:49.069Z,4.20
2019-02-15T01:55:18.964Z,4.30
2019-02-15T01:57:49.243Z,4.30
2019-02-15T02:00:20.252Z,4.20
2019-02-15T02:02:50.400Z,4.20
2019-02-15T02:05:20.474Z,4.30
2019-02-15T02:07:50.665Z,4.20
2019-02-15T02:10:20.870Z,4.20
2019-02-15T02:12:50.847Z,4.30
2019-02-15T02:15:20.750Z,4.40
2019-02-15T02:17:50.763Z,4.40
2019-02-15T02:20:21.155Z,4.40
2019-02-15T02:22:51.173Z,4.40
2019-02-15T02:25:21.076Z,4.40
2019-02-15T02:27:51.027Z,4.30
2019-02-15T02:30:21.215Z,4.40
2019-02-15T02:32:51.081Z,4.30
2019-02-15T02:35:21.414Z,4.30
2019-02-15T02:37:51.876Z,4.30
2019-02-15T02:40:21.778Z,4.30
2019-02-15T02:42:51.733Z,4.30
2019-02-15T02:45:22.046Z,4.30
2019-02-15T02:47:51.954Z,4.30
2019-02-15T02:50:22.206Z,4.30
2019-02-15T02:52:52.402Z,4.20
2019-02-15T02:55:22.355Z,4.20
2019-02-15T02:57:52.356Z,4.30
2019-02-15T03:00:22.583Z,4.20
2019-02-15T03:02:52.455Z,4.20
2019-02-15T03:05:22.745Z,4.20
2019-02-15T03:07:53.012Z,4.20
2019-02-15T03:10:22.911Z,4.20
2019-02-15T03:12:52.926Z,4.20
2019-02-15T03:15:23.197Z,4.20
2019-02-15T03:17:53.083Z,4.20
2019-02-15T03:20:30.821Z,4.20
2019-02-15T03:22:54.849Z,4.20
2019-02-15T03:25:25.111Z,4.20
2019-02-15T03:27:55.028Z,4.20
2019-02-15T03:30:24.910Z,4.20
2019-02-15T03:32:55.055Z,4.20
2019-02-15T03:35:25.083Z,4.10
2019-02-15T03:38:19.870Z,4.10
2019-02-15T03:40:53.223Z,4.20
2019-02-15T03:43:23.064Z,4.30
2019-02-15T03:45:53.043Z,4.30
2019-02-15T03:48:23.333Z,4.20
2019-02-15T03:50:53.670Z,4.20
2019-02-15T03:53:23.612Z,4.20
2019-02-15T03:55:54.092Z,4.20
2019-02-15T03:58:23.954Z,4.30
2019-02-15T04:00:53.855Z,4.30
2019-02-15T04:03:24.128Z,4.30
2019-02-15T04:05:54.380Z,4.30
2019-02-15T04:08:24.263Z,4.30
2019-02-15T04:10:54.506Z,4.30
2019-02-15T04:13:24.391Z,4.30
2019-02-15T04:15:54.289Z,4.30
2019-02-15T04:18:24.659Z,4.20
2019-02-15T04:20:54.832Z,4.20
2019-02-15T04:23:24.734Z,4.20
2019-02-15T04:25:54.993Z,4.20
2019-02-15T04:28:26.793Z,4.10
2019-02-15T04:30:57.111Z,4.20
2019-02-15T04:33:27.077Z,4.10
2019-02-15T04:35:57.224Z,4.10
2019-02-15T04:38:27.470Z,4.10
2019-02-15T04:40:57.384Z,4.10
2019-02-15T04:43:27.336Z,4.10
2019-02-15T04:45:57.401Z,4.10
2019-02-15T04:48:27.370Z,4.10
2019-02-15T04:50:57.590Z,4.00
2019-02-15T04:53:27.878Z,4.10
2019-02-15T04:55:57.806Z,4.10
2019-02-15T04:58:27.690Z,4.10
2019-02-15T05:00:57.945Z,4.00
2019-02-15T05:03:27.815Z,4.10
2019-02-15T05:05:57.911Z,4.10
2019-02-15T05:08:28.225Z,4.10
2019-02-15T05:10:58.120Z,4.20
2019-02-15T05:13:27.977Z,4.30
2019-02-15T05:15:58.133Z,4.30
2019-02-15T05:18:28.201Z,4.30
2019-02-15T05:20:58.201Z,4.30
2019-02-15T05:23:28.605Z,4.30
2019-02-15T05:25:58.594Z,4.40
2019-02-15T05:28:28.513Z,4.30
2019-02-15T05:30:58.749Z,4.30
2019-02-15T05:33:28.730Z,4.30
2019-02-15T05:35:59.430Z,4.40
2019-02-15T05:38:29.252Z,4.40
2019-02-15T05:40:59.199Z,4.40
2019-02-15T05:43:29.359Z,4.40
2019-02-15T05:45:59.237Z,4.40
2019-02-15T05:48:29.194Z,4.40
2019-02-15T05:50:59.418Z,4.30
2019-02-15T05:53:29.314Z,4.30
2019-02-15T05:55:59.262Z,4.20
2019-02-15T05:58:29.235Z,4.20
2019-02-15T06:00:59.077Z,4.20
2019-02-15T06:03:28.994Z,4.20
2019-02-15T06:05:58.982Z,4.20
2019-02-15T06:08:29.802Z,4.30
2019-02-15T06:11:07.366Z,4.30
2019-02-15T06:13:32.377Z,4.30
2019-02-15T06:16:02.329Z,4.30
2019-02-15T06:18:32.286Z,4.30
2019-02-15T06:21:02.167Z,4.30
2019-02-15T06:23:32.838Z,4.40
2019-02-15T06:26:02.801Z,4.40
2019-02-15T06:28:33.391Z,4.40
2019-02-15T06:31:03.250Z,4.40
2019-02-15T06:33:33.143Z,4.40
2019-02-15T06:36:03.417Z,4.40
2019-02-15T06:38:35.058Z,4.40
2019-02-15T06:41:05.530Z,4.40
2019-02-15T06:43:35.401Z,4.40
2019-02-15T06:46:05.313Z,4.40
2019-02-15T06:48:35.663Z,4.30
2019-02-15T06:51:05.523Z,4.40
2019-02-15T06:53:35.807Z,4.30
2019-02-15T06:56:06.136Z,4.30
2019-02-15T06:58:45.470Z,4.30
2019-02-15T07:01:22.347Z,4.30
2019-02-15T07:04:23.370Z,4.30
2019-02-15T07:06:53.416Z,4.30
2019-02-15T07:09:23.618Z,4.30
2019-02-15T07:11:53.529Z,4.30
2019-02-15T07:14:23.875Z,4.30
2019-02-15T07:16:53.746Z,4.30
2019-02-15T07:19:24.045Z,4.30
2019-02-15T07:21:53.982Z,4.30
2019-02-15T07:24:24.274Z,4.30
2019-02-15T07:26:54.477Z,4.30
2019-02-15T07:29:24.383Z,4.30
2019-02-15T07:31:54.281Z,4.30
2019-02-15T07:34:24.549Z,4.40
2019-02-15T07:36:54.665Z,4.40
2019-02-15T07:39:24.911Z,4.40
2019-02-15T07:41:55.193Z,4.40
2019-02-15T07:44:25.121Z,4.40
2019-02-15T07:46:54.978Z,4.40
2019-02-15T07:49:27.165Z,4.50
2019-02-15T07:51:56.763Z,4.50
2019-02-15T07:54:27.131Z,4.40
2019-02-15T07:56:56.991Z,4.40
2019-02-15T07:59:26.956Z,4.40
2019-02-15T08:02:01.767Z,4.50
2019-02-15T08:04:28.676Z,4.50
2019-02-15T08:06:58.707Z,4.50
2019-02-15T08:09:28.851Z,4.50
2019-02-15T08:11:58.746Z,4.50
2019-02-15T08:14:29.034Z,4.50
2019-02-15T08:16:58.949Z,4.50
2019-02-15T08:19:28.830Z,4.50
2019-02-15T08:21:59.159Z,4.50
2019-02-15T08:24:29.422Z,4.50
2019-02-15T08:26:59.317Z,4.50
2019-02-15T08:29:29.649Z,4.60
2019-02-15T08:31:59.507Z,4.60
2019-02-15T08:34:29.364Z,4.60
2019-02-15T08:36:59.572Z,4.60
2019-02-15T08:39:29.749Z,4.50
2019-02-15T08:42:03.842Z,4.50
2019-02-15T08:44:31.592Z,4.60
2019-02-15T08:47:01.521Z,4.60
2019-02-15T08:49:31.413Z,4.60
2019-02-15T08:52:01.729Z,4.60
2019-02-15T08:54:32.049Z,4.60
2019-02-15T08:57:01.947Z,4.60
2019-02-15T08:59:32.188Z,4.60
2019-02-15T09:02:15.456Z,4.60
2019-02-15T09:04:45.673Z,4.60
2019-02-15T09:07:15.523Z,4.70
2019-02-15T09:09:45.734Z,4.60
2019-02-15T09:12:16.006Z,4.60
2019-02-15T09:14:46.005Z,4.60
2019-02-15T09:17:15.920Z,4.60
2019-02-15T09:19:46.171Z,4.60
2019-02-15T09:22:16.123Z,4.60
2019-02-15T09:24:46.343Z,4.60
2019-02-15T09:27:34.346Z,4.60
2019-02-15T09:30:04.343Z,4.60
2019-02-15T09:32:34.267Z,4.60
2019-02-15T09:35:04.600Z,4.50
2019-02-15T09:37:34.779Z,4.60
2019-02-15T09:40:05.588Z,4.60
2019-02-15T09:42:35.522Z,4.70
2019-02-15T09:45:07.044Z,4.60
2019-02-15T09:47:36.911Z,4.70
2019-02-15T09:50:09.622Z,4.70
2019-02-15T09:52:39.770Z,4.70
2019-02-15T09:55:10.332Z,4.70
2019-02-15T09:57:40.492Z,4.70
2019-02-15T10:00:10.437Z,4.80
2019-02-15T10:02:40.304Z,4.80
2019-02-15T10:05:10.766Z,4.80
2019-02-15T10:07:40.655Z,4.80
2019-02-15T10:10:11.218Z,4.80
2019-02-15T10:12:41.129Z,4.90
2019-02-15T10:15:11.308Z,4.90
2019-02-15T10:17:41.487Z,4.90
2019-02-15T10:20:11.573Z,4.90
2019-02-15T10:22:41.459Z,4.90
2019-02-15T10:25:12.031Z,5.00
2019-02-15T10:27:41.989Z,5.00
2019-02-15T10:30:11.843Z,5.00
2019-02-15T10:32:42.287Z,5.00
2019-02-15T10:35:12.326Z,4.90
2019-02-15T10:37:42.182Z,4.90
2019-02-15T10:40:13.058Z,4.80
2019-02-15T10:42:42.960Z,4.80
2019-02-15T10:45:13.505Z,4.80
2019-02-15T10:47:43.716Z,4.80
2019-02-15T10:50:13.793Z,4.80
2019-02-15T10:52:43.638Z,4.90
2019-02-15T10:55:14.088Z,4.90
2019-02-15T10:57:44.023Z,4.90
2019-02-15T11:00:19.854Z,4.90
2019-02-15T11:02:49.894Z,4.90
2019-02-15T11:05:20.504Z,5.00
2019-02-15T11:07:50.382Z,5.00
2019-02-15T11:10:20.698Z,5.00
2019-02-15T11:12:50.975Z,5.00
2019-02-15T11:15:21.005Z,4.90
2019-02-15T11:17:50.895Z,4.90
2019-02-15T11:20:21.746Z,4.90
2019-02-15T11:22:51.668Z,4.90
2019-02-15T11:25:22.017Z,4.80
2019-02-15T11:27:51.917Z,4.80
2019-02-15T11:30:21.892Z,4.70
2019-02-15T11:32:52.139Z,4.70
2019-02-15T11:35:21.994Z,4.70
2019-02-15T11:37:51.899Z,4.70
2019-02-15T11:40:22.706Z,4.70
2019-02-15T11:42:52.667Z,4.80
2019-02-15T11:45:22.605Z,4.70
2019-02-15T11:47:52.965Z,4.70
2019-02-15T11:50:22.792Z,4.80
2019-02-15T11:52:52.706Z,4.80
2019-02-15T11:55:23.238Z,4.80
2019-02-15T11:57:53.147Z,4.80
2019-02-15T12:00:27.769Z,4.80
2019-02-15T12:02:57.649Z,4.80
2019-02-15T12:05:27.513Z,4.80
2019-02-15T12:07:57.705Z,4.90
2019-02-15T12:10:27.935Z,4.80
2019-02-15T12:12:57.829Z,4.80
2019-02-15T12:15:28.182Z,4.80
2019-02-15T12:17:58.066Z,4.80
2019-02-15T12:20:27.984Z,4.80
2019-02-15T12:22:58.350Z,4.80
2019-02-15T12:25:28.604Z,4.80
2019-02-15T12:27:58.558Z,4.80
2019-02-15T12:30:28.807Z,4.80
2019-02-15T12:32:58.652Z,4.80
2019-02-15T12:35:28.512Z,4.80
2019-02-15T12:37:58.958Z,4.90
2019-02-15T12:40:29.133Z,4.90
2019-02-15T12:42:59.018Z,4.90
2019-02-15T12:45:29.333Z,4.90
2019-02-15T12:47:59.218Z,4.90
2019-02-15T12:50:29.120Z,4.90
2019-02-15T12:52:59.378Z,4.80
2019-02-15T12:55:29.648Z,4.90
2019-02-15T12:57:59.495Z,4.90
2019-02-15T13:00:29.734Z,4.90
2019-02-15T13:02:59.657Z,5.00
2019-02-15T13:05:29.547Z,5.00
2019-02-15T13:07:59.777Z,5.10
2019-02-15T13:10:33.708Z,5.20
2019-02-15T13:13:03.649Z,5.30
2019-02-15T13:15:33.601Z,5.30
2019-02-15T13:18:03.955Z,5.30
2019-02-15T13:20:33.986Z,5.40
2019-02-15T13:23:03.885Z,5.50
2019-02-15T13:25:36.714Z,5.70
2019-02-15T13:28:06.290Z,6.10
2019-02-15T13:30:36.964Z,6.50
2019-02-15T13:33:06.931Z,6.70
2019-02-15T13:35:37.007Z,7.40
2019-02-15T13:38:07.267Z,8.70
2019-02-15T13:40:37.143Z,9.40
2019-02-15T13:43:07.482Z,8.80
2019-02-15T13:45:37.861Z,8.30
2019-02-15T13:48:07.757Z,8.20
2019-02-15T13:50:37.683Z,8.50
2019-02-15T13:53:08.099Z,8.40
2019-02-15T13:55:39.293Z,9.00
2019-02-15T13:58:09.701Z,8.70
2019-02-15T14:00:39.823Z,8.90
2019-02-15T14:03:09.741Z,8.60
2019-02-15T14:05:40.033Z,8.30
2019-02-15T14:08:10.188Z,8.00
2019-02-15T14:10:40.121Z,7.70
2019-02-15T14:13:10.605Z,7.40
2019-02-15T14:15:40.477Z,7.60
2019-02-15T14:18:10.386Z,7.70
2019-02-15T14:20:40.661Z,7.60
2019-02-15T14:23:10.541Z,7.30
2019-02-15T14:25:40.439Z,7.20
2019-02-15T14:28:11.010Z,7.40
2019-02-15T14:30:40.902Z,7.60
2019-02-15T14:33:10.833Z,7.80
2019-02-15T14:35:41.048Z,7.70
2019-02-15T14:38:10.909Z,7.60
2019-02-15T14:40:40.818Z,7.60
2019-02-15T14:43:11.217Z,7.70
2019-02-15T14:45:41.053Z,7.80
2019-02-15T14:48:10.971Z,8.20
2019-02-15T14:50:41.166Z,8.20
2019-02-15T14:53:11.220Z,7.90
2019-02-15T14:55:41.122Z,8.00
2019-02-15T14:58:11.836Z,7.90
2019-02-15T15:00:41.668Z,7.80
2019-02-15T15:03:11.731Z,7.60
2019-02-15T15:05:41.895Z,7.40
2019-02-15T15:08:11.967Z,7.60
2019-02-15T15:10:41.899Z,7.80
2019-02-15T15:13:12.359Z,7.90
2019-02-15T15:15:42.611Z,7.90
2019-02-15T15:18:13.565Z,7.60
2019-02-15T15:20:44.155Z,7.40
2019-02-15T15:23:14.020Z,7.50
2019-02-15T15:25:43.901Z,7.40
2019-02-15T15:28:14.511Z,6.90
2019-02-15T15:30:44.352Z,6.70
2019-02-15T15:33:14.237Z,6.70
2019-02-15T15:35:44.462Z,6.90
2019-02-15T15:38:14.335Z,6.90
2019-02-15T15:40:44.214Z,7.00
2019-02-15T15:43:14.708Z,7.10
2019-02-15T15:45:44.577Z,6.80
2019-02-15T15:48:22.477Z,6.50
2019-02-15T15:50:46.410Z,6.50
2019-02-15T15:53:16.251Z,6.20
2019-02-15T15:55:46.158Z,6.10
2019-02-15T15:58:16.774Z,5.90
2019-02-15T16:00:46.623Z,5.70
2019-02-15T16:03:16.763Z,5.40
2019-02-15T16:05:46.934Z,5.30
2019-02-15T16:08:16.775Z,5.20
2019-02-15T16:10:46.703Z,5.10
2019-02-15T16:13:17.295Z,5.00
2019-02-15T16:15:47.125Z,4.90
2019-02-15T16:18:17.000Z,4.90
2019-02-15T16:20:47.754Z,4.80
2019-02-15T16:23:17.639Z,4.60
2019-02-15T16:25:47.564Z,4.60
2019-02-15T16:28:18.117Z,4.50
2019-02-15T16:30:48.063Z,4.40
2019-02-15T16:33:17.988Z,4.30
2019-02-15T16:35:48.283Z,4.30
2019-02-15T16:38:18.154Z,4.10
2019-02-15T16:40:48.023Z,4.00
2019-02-15T16:43:18.726Z,3.90
2019-02-15T16:45:48.610Z,3.70
2019-02-15T16:48:18.503Z,3.70
2019-02-15T16:50:48.787Z,3.50
2019-02-15T16:53:18.657Z,3.50
2019-02-15T16:55:48.585Z,3.40
2019-02-15T16:58:19.343Z,3.30
2019-02-15T17:00:49.230Z,3.20
2019-02-15T17:03:19.235Z,3.10
2019-02-15T17:05:49.601Z,3.10
2019-02-15T17:08:19.437Z,3.10
2019-02-15T17:10:49.349Z,3.20
2019-02-15T17:13:20.074Z,3.20
2019-02-15T17:15:49.935Z,3.40
2019-02-15T17:18:19.801Z,3.50
2019-02-15T17:20:50.134Z,3.70
2019-02-15T17:23:20.214Z,3.70
2019-02-15T17:25:50.139Z,3.90
2019-02-15T17:28:20.609Z,3.90
2019-02-15T17:30:50.468Z,3.90
2019-02-15T17:33:20.473Z,3.90
2019-02-15T17:35:51.072Z,3.90
2019-02-15T17:38:20.958Z,3.80
2019-02-15T17:40:50.921Z,4.00
2019-02-15T17:43:21.312Z,3.90
2019-02-15T17:45:51.578Z,4.00
2019-02-15T17:48:21.530Z,3.90
2019-02-15T17:50:51.767Z,3.80
2019-02-15T17:53:21.638Z,3.90
2019-02-15T17:55:51.552Z,3.90
2019-02-15T17:58:21.847Z,3.90
2019-02-15T18:00:51.979Z,3.90
2019-02-15T18:03:22.264Z,3.90
2019-02-15T18:05:52.209Z,3.90
2019-02-15T18:08:22.146Z,3.90
2019-02-15T18:10:52.557Z,3.90
2019-02-15T18:13:22.479Z,3.70
2019-02-15T18:15:53.308Z,3.70
2019-02-15T18:18:23.327Z,3.70
2019-02-15T18:20:53.223Z,3.70
2019-02-15T18:23:24.537Z,3.60
2019-02-15T18:25:54.411Z,3.50
2019-02-15T18:28:24.270Z,3.50
2019-02-15T18:30:54.944Z,3.40
2019-02-15T18:33:24.975Z,3.40
2019-02-15T18:35:55.154Z,3.30
2019-02-15T18:38:25.395Z,3.20
2019-02-15T18:40:55.349Z,3.30
2019-02-15T18:43:25.429Z,3.30
2019-02-15T18:45:55.958Z,3.40
2019-02-15T18:48:25.902Z,3.50
2019-02-15T18:50:55.939Z,3.40
2019-02-15T18:53:26.026Z,3.50
2019-02-15T18:55:55.970Z,3.40
2019-02-15T18:58:25.870Z,3.50
2019-02-15T19:00:56.282Z,3.30
2019-02-15T19:03:26.278Z,3.20
2019-02-15T19:05:56.164Z,3.00
2019-02-15T19:08:26.135Z,2.60
2019-02-15T19:10:56.105Z,2.40
2019-02-15T19:13:26.013Z,2.40
2019-02-15T19:15:56.572Z,2.30
2019-02-15T19:18:26.503Z,2.30
2019-02-15T19:20:56.441Z,2.60
2019-02-15T19:23:26.868Z,2.70
2019-02-15T19:25:56.789Z,2.90
2019-02-15T19:28:26.756Z,3.00
2019-02-15T19:30:57.415Z,3.10
2019-02-15T19:33:27.298Z,3.00
2019-02-15T19:35:57.229Z,3.00
2019-02-15T19:38:27.482Z,3.30
2019-02-15T19:40:57.369Z,3.30
2019-02-15T19:43:27.363Z,3.20
2019-02-15T19:45:57.448Z,3.10
2019-02-15T19:48:27.419Z,3.30
2019-02-15T19:50:57.349Z,3.20
2019-02-15T19:53:27.470Z,3.10
2019-02-15T19:55:57.400Z,3.00
2019-02-15T19:58:27.394Z,3.00
2019-02-15T20:00:57.539Z,3.00
2019-02-15T20:03:27.544Z,2.80
2019-02-15T20:05:57.491Z,2.90
2019-02-15T20:08:27.677Z,3.00
2019-02-15T20:10:57.587Z,2.90
2019-02-15T20:13:27.537Z,3.20
2019-02-15T20:15:57.635Z,3.30
2019-02-15T20:18:27.550Z,3.40
2019-02-15T20:20:57.433Z,3.50
2019-02-15T20:23:27.672Z,3.50
2019-02-15T20:25:57.637Z,3.60
2019-02-15T20:28:27.605Z,3.50
2019-02-15T20:30:57.840Z,3.30
2019-02-15T20:33:27.785Z,3.40
2019-02-15T20:35:57.718Z,3.30
2019-02-15T20:38:27.733Z,3.40
2019-02-15T20:40:57.638Z,3.30
2019-02-15T20:43:27.487Z,3.50
2019-02-15T20:45:57.520Z,3.60
2019-02-15T20:48:27.576Z,3.60
2019-02-15T20:50:57.489Z,3.80
2019-02-15T20:53:27.622Z,3.60
2019-02-15T20:55:57.571Z,3.80
2019-02-15T20:58:27.428Z,3.90
2019-02-15T21:00:57.663Z,3.90
2019-02-15T21:03:27.628Z,3.90
2019-02-15T21:05:57.483Z,3.90
2019-02-15T21:08:27.585Z,3.70
2019-02-15T21:10:57.538Z,3.70
2019-02-15T21:13:27.454Z,3.60
2019-02-15T21:15:57.551Z,3.60
2019-02-15T21:18:27.505Z,3.40
2019-02-15T21:20:57.566Z,3.30
2019-02-15T21:23:27.549Z,3.20
2019-02-15T21:25:57.472Z,3.20
2019-02-15T21:28:27.374Z,3.20
2019-02-15T21:30:57.666Z,3.10
2019-02-15T21:33:28.020Z,3.00
2019-02-15T21:35:58.325Z,3.00
2019-02-15T21:38:28.248Z,3.10
2019-02-15T21:40:58.259Z,3.10
2019-02-15T21:43:28.677Z,3.20
2019-02-15T21:45:58.559Z,3.50
2019-02-15T21:48:28.733Z,3.50
2019-02-15T21:50:58.734Z,3.40
2019-02-15T21:53:28.700Z,3.50
2019-02-15T21:55:58.674Z,3.50
2019-02-15T21:58:28.668Z,3.60
2019-02-15T22:00:58.613Z,3.70
2019-02-15T22:03:28.669Z,3.80
2019-02-15T22:05:58.803Z,3.80
2019-02-15T22:08:28.680Z,3.70
2019-02-15T22:10:58.767Z,3.80
2019-02-15T22:13:29.002Z,3.70
2019-02-15T22:15:58.911Z,3.60
2019-02-15T22:18:29.134Z,3.30
2019-02-15T22:20:59.569Z,3.00
2019-02-15T22:23:29.431Z,2.80
2019-02-15T22:25:59.354Z,3.10
2019-02-15T22:28:29.622Z,2.90
2019-02-15T22:30:59.456Z,2.60
2019-02-15T22:33:30.566Z,2.40
2019-02-15T22:36:00.468Z,2.30
2019-02-15T22:38:30.401Z,2.30
2019-02-15T22:41:19.462Z,2.10
2019-02-15T22:43:49.287Z,2.00
2019-02-15T22:46:19.201Z,1.90
2019-02-15T22:48:49.914Z,2.00
2019-02-15T22:51:19.793Z,1.90
2019-02-15T22:53:49.696Z,2.00
2019-02-15T22:56:19.982Z,2.10
2019-02-15T22:58:49.866Z,2.00
2019-02-15T23:01:22.081Z,1.90
2019-02-15T23:03:52.441Z,2.00
2019-02-15T23:06:22.280Z,2.00
2019-02-15T23:08:52.641Z,1.80
2019-02-15T23:11:22.691Z,1.70
2019-02-15T23:13:52.543Z,1.70
2019-02-15T23:16:22.788Z,1.70
2019-02-15T23:18:53.146Z,1.80
2019-02-15T23:21:23.377Z,1.90
2019-02-15T23:23:53.299Z,1.80
2019-02-15T23:26:23.241Z,1.80
2019-02-15T23:28:53.491Z,1.90
2019-02-15T23:31:23.396Z,2.00
2019-02-15T23:33:53.602Z,2.00
2019-02-15T23:36:23.736Z,1.90
2019-02-15T23:38:53.612Z,1.80
2019-02-15T23:41:23.562Z,1.90
2019-02-15T23:43:53.817Z,1.80
2019-02-15T23:46:23.711Z,1.70
2019-02-15T23:48:53.906Z,1.60
2019-02-15T23:51:23.883Z,1.50
2019-02-15T23:53:53.740Z,1.40
2019-02-15T23:56:23.704Z,1.40
2019-02-15T23:58:54.028Z,1.40
